createdAt,value
2023-11-16T00:00:13.805Z,11.95
2023-11-16T00:02:42.872Z,12.32
2023-11-16T00:05:13.138Z,13.02
2023-11-16T00:07:41.847Z,12.43
2023-11-16T00:10:11.321Z,12.43
2023-11-16T00:12:37.826Z,11.80
2023-11-16T00:15:07.365Z,12.35
2023-11-16T00:17:34.520Z,11.33
2023-11-16T00:20:01.410Z,11.55
2023-11-16T00:22:30.929Z,12.88
2023-11-16T00:24:57.431Z,11.50
2023-11-16T00:27:27.220Z,12.57
2023-11-16T00:29:53.915Z,11.82
2023-11-16T00:32:20.367Z,10.77
2023-11-16T00:34:46.831Z,11.52
2023-11-16T00:37:13.325Z,11.30
2023-11-16T00:39:39.981Z,11.88
2023-11-16T00:42:06.955Z,11.52
2023-11-16T00:44:33.565Z,11.00
2023-11-16T00:46:59.992Z,10.85
2023-11-16T00:49:27.036Z,12.48
2023-11-16T00:51:53.469Z,11.48
2023-11-16T00:54:23.740Z,11.40
2023-11-16T00:56:50.594Z,11.32
2023-11-16T00:59:17.010Z,11.30
2023-11-16T01:01:45.133Z,10.18
2023-11-16T01:04:13.165Z,10.57
2023-11-16T01:06:40.747Z,11.38
2023-11-16T01:09:10.150Z,10.40
2023-11-16T01:11:39.403Z,10.32
2023-11-16T01:14:06.064Z,10.70
2023-11-16T01:16:41.751Z,11.43
2023-11-16T01:19:09.566Z,11.57
2023-11-16T01:21:45.444Z,10.35
2023-11-16T01:24:12.790Z,10.98
2023-11-16T01:26:42.254Z,10.43
2023-11-16T01:29:10.447Z,10.18
2023-11-16T01:31:41.420Z,10.60
2023-11-16T01:34:11.500Z,9.88
2023-11-16T01:36:38.465Z,10.10
2023-11-16T01:39:05.069Z,9.82
2023-11-16T01:41:31.607Z,9.73
2023-11-16T01:43:58.213Z,9.35
2023-11-16T01:46:27.510Z,9.70
2023-11-16T01:48:55.855Z,10.20
2023-11-16T01:51:22.727Z,9.82
2023-11-16T01:53:57.142Z,9.23
2023-11-16T01:56:24.832Z,9.07
2023-11-16T01:58:52.410Z,9.90
2023-11-16T02:01:19.457Z,9.65
2023-11-16T02:03:49.312Z,9.73
2023-11-16T02:06:17.146Z,9.40
2023-11-16T02:08:43.716Z,9.85
2023-11-16T02:11:12.145Z,10.32
2023-11-16T02:13:38.645Z,8.32
2023-11-16T02:16:05.596Z,9.48
2023-11-16T02:18:31.999Z,9.40
2023-11-16T02:20:59.037Z,8.55
2023-11-16T02:23:25.643Z,8.77
2023-11-16T02:25:52.702Z,8.82
2023-11-16T02:28:20.387Z,9.85
2023-11-16T02:30:50.718Z,8.68
2023-11-16T02:33:17.814Z,8.63
2023-11-16T02:35:44.531Z,8.40
2023-11-16T02:38:14.025Z,8.20
2023-11-16T02:40:41.230Z,9.23
2023-11-16T02:43:07.740Z,8.73
2023-11-16T02:45:35.509Z,7.85
2023-11-16T02:48:02.773Z,8.50
2023-11-16T02:50:29.251Z,8.27
2023-11-16T02:52:55.684Z,8.38
2023-11-16T02:55:25.515Z,8.52
2023-11-16T02:57:52.465Z,9.38
2023-11-16T03:00:20.982Z,9.80
2023-11-16T03:02:47.411Z,9.00
2023-11-16T03:05:20.051Z,8.68
2023-11-16T03:07:46.916Z,8.63
2023-11-16T03:10:13.500Z,8.32
2023-11-16T03:12:40.328Z,8.48
2023-11-16T03:15:07.451Z,8.60
2023-11-16T03:17:34.340Z,8.35
2023-11-16T03:20:01.058Z,8.80
2023-11-16T03:22:31.125Z,8.45
2023-11-16T03:24:57.736Z,8.60
2023-11-16T03:27:24.182Z,8.32
2023-11-16T03:29:58.018Z,8.43
2023-11-16T03:32:26.697Z,8.10
2023-11-16T03:34:53.430Z,7.90
2023-11-16T03:37:23.271Z,8.30
2023-11-16T03:39:49.989Z,8.18
2023-11-16T03:42:16.762Z,8.00
2023-11-16T03:44:43.334Z,7.80
2023-11-16T03:47:09.782Z,8.43
2023-11-16T03:49:36.163Z,8.13
2023-11-16T03:52:02.699Z,7.80
2023-11-16T03:54:29.131Z,7.47
2023-11-16T03:56:55.746Z,7.85
2023-11-16T03:59:22.871Z,7.90
2023-11-16T04:01:52.360Z,7.88
2023-11-16T04:04:19.155Z,7.53
2023-11-16T04:06:45.618Z,7.60
2023-11-16T04:09:12.891Z,7.18
2023-11-16T04:11:43.204Z,7.45
2023-11-16T04:14:09.828Z,7.43
2023-11-16T04:16:36.913Z,7.10
2023-11-16T04:19:05.343Z,7.70
2023-11-16T04:21:32.753Z,7.35
2023-11-16T04:24:00.973Z,7.25
2023-11-16T04:26:30.028Z,6.90
2023-11-16T04:28:58.286Z,7.45
2023-11-16T04:31:27.814Z,7.22
2023-11-16T04:33:56.292Z,7.60
2023-11-16T04:36:25.216Z,7.90
2023-11-16T04:38:52.138Z,7.90
2023-11-16T04:41:18.569Z,7.22
2023-11-16T04:43:46.552Z,7.32
2023-11-16T04:46:13.321Z,7.72
2023-11-16T04:48:44.143Z,7.35
2023-11-16T04:51:20.904Z,8.10
2023-11-16T04:53:50.928Z,8.50
2023-11-16T04:56:17.571Z,8.70
2023-11-16T04:58:44.814Z,8.25
2023-11-16T05:01:15.395Z,7.55
2023-11-16T05:03:42.105Z,7.20
2023-11-16T05:06:09.014Z,6.93
2023-11-16T05:08:35.519Z,5.57
2023-11-16T05:11:01.936Z,5.90
2023-11-16T05:13:28.690Z,5.88
2023-11-16T05:15:55.193Z,5.82
2023-11-16T05:18:23.549Z,5.60
2023-11-16T05:20:50.104Z,7.13
2023-11-16T05:23:18.287Z,7.43
2023-11-16T05:25:45.608Z,6.93
2023-11-16T05:28:12.927Z,6.78
2023-11-16T05:30:39.711Z,6.50
2023-11-16T05:33:06.416Z,6.50
2023-11-16T05:35:33.785Z,6.13
2023-11-16T05:38:00.349Z,6.60
2023-11-16T05:40:31.132Z,6.20
2023-11-16T05:42:57.626Z,6.90
2023-11-16T05:45:24.025Z,7.25
2023-11-16T05:47:50.469Z,6.78
2023-11-16T05:50:18.356Z,6.85
2023-11-16T05:52:44.799Z,6.88
2023-11-16T05:55:11.356Z,7.10
2023-11-16T05:57:37.903Z,6.88
2023-11-16T06:00:08.516Z,7.03
2023-11-16T06:02:35.388Z,6.75
2023-11-16T06:05:02.153Z,6.40
2023-11-16T06:07:30.465Z,6.57
2023-11-16T06:09:56.894Z,6.18
2023-11-16T06:12:24.325Z,5.80
2023-11-16T06:14:56.789Z,6.00
2023-11-16T06:17:23.667Z,6.65
2023-11-16T06:19:50.177Z,6.68
2023-11-16T06:22:16.580Z,6.60
2023-11-16T06:24:43.015Z,6.03
2023-11-16T06:27:09.443Z,6.15
2023-11-16T06:29:37.226Z,6.05
2023-11-16T06:32:06.380Z,7.00
2023-11-16T06:34:33.715Z,6.38
2023-11-16T06:37:00.194Z,6.10
2023-11-16T06:39:26.646Z,6.15
2023-11-16T06:41:53.073Z,6.70
2023-11-16T06:44:20.902Z,6.63
2023-11-16T06:46:47.418Z,7.18
2023-11-16T06:49:13.918Z,6.47
2023-11-16T06:51:40.419Z,7.30
2023-11-16T06:54:07.215Z,6.22
2023-11-16T06:56:35.177Z,6.80
2023-11-16T06:59:02.032Z,6.40
2023-11-16T07:01:33.794Z,6.85
2023-11-16T07:04:00.425Z,7.60
2023-11-16T07:06:26.932Z,7.57
2023-11-16T07:08:53.329Z,6.70
2023-11-16T07:11:22.656Z,6.80
2023-11-16T07:13:49.134Z,7.30
2023-11-16T07:16:15.672Z,8.07
2023-11-16T07:18:42.156Z,7.32
2023-11-16T07:21:09.145Z,7.70
2023-11-16T07:23:37.552Z,7.95
2023-11-16T07:26:09.914Z,6.80
2023-11-16T07:28:38.162Z,7.47
2023-11-16T07:31:05.204Z,6.85
2023-11-16T07:33:35.633Z,6.80
2023-11-16T07:38:29.453Z,7.30
2023-11-16T07:40:58.259Z,7.00
2023-11-16T07:43:24.970Z,7.53
2023-11-16T07:45:51.536Z,7.57
2023-11-16T07:48:18.370Z,7.28
2023-11-16T07:50:44.787Z,7.22
2023-11-16T07:53:12.021Z,7.68
2023-11-16T07:55:41.830Z,6.97
2023-11-16T07:58:13.443Z,6.35
2023-11-16T08:00:56.452Z,6.70
2023-11-16T08:03:41.918Z,6.72
2023-11-16T08:06:13.614Z,6.25
2023-11-16T08:08:44.030Z,7.40
2023-11-16T08:11:12.312Z,7.53
2023-11-16T08:13:42.502Z,7.90
2023-11-16T08:16:21.212Z,7.88
2023-11-16T08:18:48.418Z,7.80
2023-11-16T08:21:16.214Z,7.28
2023-11-16T08:23:51.550Z,6.35
2023-11-16T08:26:22.176Z,7.30
2023-11-16T08:28:49.171Z,7.50
2023-11-16T08:31:16.291Z,7.72
2023-11-16T08:33:45.960Z,6.43
2023-11-16T08:36:13.204Z,6.97
2023-11-16T08:38:44.034Z,7.45
2023-11-16T08:41:17.493Z,6.75
2023-11-16T08:43:44.534Z,6.93
2023-11-16T08:46:21.740Z,5.57
2023-11-16T08:48:48.747Z,6.70
2023-11-16T08:51:17.283Z,7.00
2023-11-16T08:53:44.637Z,7.10
2023-11-16T08:56:15.213Z,6.63
2023-11-16T08:58:48.927Z,6.57
2023-11-16T09:01:18.353Z,7.00
2023-11-16T09:03:50.700Z,6.78
2023-11-16T09:06:19.532Z,6.20
2023-11-16T09:08:52.826Z,7.32
2023-11-16T09:11:23.160Z,7.40
2023-11-16T09:13:50.145Z,7.38
2023-11-16T09:16:16.615Z,7.07
2023-11-16T09:18:43.325Z,6.95
2023-11-16T09:21:15.290Z,6.95
2023-11-16T09:23:42.132Z,5.70
2023-11-16T09:26:11.866Z,7.05
2023-11-16T09:28:39.769Z,6.75
2023-11-16T09:31:13.605Z,5.75
2023-11-16T09:33:40.874Z,6.18
2023-11-16T09:36:10.153Z,5.90
2023-11-16T09:38:36.823Z,6.55
2023-11-16T09:41:08.872Z,6.65
2023-11-16T09:43:38.316Z,6.03
2023-11-16T09:46:08.045Z,6.20
2023-11-16T09:48:36.784Z,6.20
2023-11-16T09:51:03.343Z,6.38
2023-11-16T09:53:31.076Z,5.45
2023-11-16T09:55:59.396Z,6.35
2023-11-16T09:58:29.834Z,6.00
2023-11-16T10:01:00.101Z,5.07
2023-11-16T10:03:36.093Z,5.80
2023-11-16T10:06:05.889Z,5.60
2023-11-16T10:08:34.729Z,6.32
2023-11-16T10:11:08.207Z,6.35
2023-11-16T10:13:35.532Z,4.70
2023-11-16T10:16:06.092Z,4.90
2023-11-16T10:18:33.125Z,5.40
2023-11-16T10:20:59.554Z,6.22
2023-11-16T10:23:26.106Z,5.43
2023-11-16T10:25:52.859Z,5.22
2023-11-16T10:28:20.369Z,5.30
2023-11-16T10:30:51.836Z,6.15
2023-11-16T10:33:19.287Z,5.80
2023-11-16T10:35:49.196Z,5.80
2023-11-16T10:38:16.946Z,5.78
2023-11-16T10:40:44.649Z,4.70
2023-11-16T10:43:12.392Z,4.63
2023-11-16T10:45:43.409Z,4.88
2023-11-16T10:48:10.659Z,4.32
2023-11-16T10:50:37.142Z,4.10
2023-11-16T10:53:04.168Z,4.30
2023-11-16T10:55:32.883Z,3.42
2023-11-16T10:58:01.598Z,4.75
2023-11-16T11:00:30.641Z,4.28
2023-11-16T11:03:00.836Z,3.70
2023-11-16T11:05:31.172Z,2.75
2023-11-16T11:08:01.810Z,2.80
2023-11-16T11:10:33.183Z,3.22
2023-11-16T11:13:06.703Z,2.40
2023-11-16T11:15:37.665Z,3.35
2023-11-16T11:18:06.120Z,3.20
2023-11-16T11:20:33.779Z,2.80
2023-11-16T11:23:10.451Z,2.78
2023-11-16T11:25:40.115Z,2.92
2023-11-16T11:28:06.640Z,3.00
2023-11-16T11:30:36.756Z,2.90
2023-11-16T11:33:08.707Z,2.63
2023-11-16T11:35:38.572Z,2.50
2023-11-16T11:38:15.813Z,2.70
2023-11-16T11:40:42.264Z,3.75
2023-11-16T11:43:19.376Z,3.38
2023-11-16T11:45:47.620Z,3.33
2023-11-16T11:48:14.353Z,4.43
2023-11-16T11:50:40.838Z,5.35
2023-11-16T11:53:10.488Z,4.55
2023-11-16T11:55:36.861Z,4.67
2023-11-16T11:58:03.682Z,4.32
2023-11-16T12:00:30.517Z,3.55
2023-11-16T12:02:57.013Z,3.50
2023-11-16T12:05:23.783Z,3.90
2023-11-16T12:08:00.504Z,4.18
2023-11-16T12:10:27.177Z,3.05
2023-11-16T12:12:57.047Z,3.40
2023-11-16T12:15:24.980Z,2.90
2023-11-16T12:17:51.772Z,2.30
2023-11-16T12:20:18.747Z,1.90
2023-11-16T12:22:45.283Z,2.60
2023-11-16T12:25:13.631Z,4.47
2023-11-16T12:27:44.232Z,2.08
2023-11-16T12:30:19.028Z,3.10
2023-11-16T12:32:45.988Z,2.90
2023-11-16T12:35:12.988Z,3.20
2023-11-16T12:37:39.633Z,4.40
2023-11-16T12:40:10.583Z,3.88
2023-11-16T12:42:38.461Z,3.90
2023-11-16T12:45:05.120Z,4.38
2023-11-16T12:47:37.632Z,4.32
2023-11-16T12:50:08.398Z,4.90
2023-11-16T12:52:35.040Z,5.90
2023-11-16T12:55:01.571Z,5.63
2023-11-16T12:57:28.513Z,5.40
2023-11-16T12:59:54.898Z,4.30
2023-11-16T13:02:21.265Z,3.50
2023-11-16T13:04:47.740Z,4.18
2023-11-16T13:07:14.825Z,4.35
2023-11-16T13:09:41.317Z,3.42
2023-11-16T13:12:16.522Z,4.40
2023-11-16T13:14:49.338Z,4.32
2023-11-16T13:17:15.731Z,4.32
2023-11-16T13:19:42.182Z,4.82
2023-11-16T13:22:08.548Z,4.28
2023-11-16T13:24:34.963Z,4.18
2023-11-16T13:27:01.374Z,3.38
2023-11-16T13:29:28.195Z,2.40
2023-11-16T13:31:55.241Z,3.00
2023-11-16T13:34:21.862Z,3.55
2023-11-16T13:36:48.756Z,2.35
2023-11-16T13:39:17.056Z,2.78
2023-11-16T13:41:48.397Z,2.83
2023-11-16T13:44:15.008Z,2.97
2023-11-16T13:46:41.448Z,3.00
2023-11-16T13:49:07.881Z,4.00
2023-11-16T13:51:34.813Z,3.90
2023-11-16T13:54:01.279Z,3.00
2023-11-16T13:56:27.695Z,3.70
2023-11-16T13:58:55.979Z,3.42
2023-11-16T14:01:23.458Z,2.38
2023-11-16T14:03:51.318Z,3.10
2023-11-16T14:06:17.846Z,3.80
2023-11-16T14:08:44.528Z,4.13
2023-11-16T14:11:14.101Z,4.65
2023-11-16T14:13:44.749Z,4.28
2023-11-16T14:16:13.810Z,4.32
2023-11-16T14:18:40.921Z,3.00
2023-11-16T14:21:10.230Z,4.68
2023-11-16T14:23:41.432Z,2.33
2023-11-16T14:26:10.226Z,8.35
2023-11-16T14:28:36.828Z,3.45
2023-11-16T14:31:04.460Z,2.03
2023-11-16T14:33:32.619Z,3.15
2023-11-16T14:35:59.320Z,2.80
2023-11-16T14:38:25.765Z,3.17
2023-11-16T14:40:53.279Z,3.92
2023-11-16T14:43:19.832Z,3.03
2023-11-16T14:45:46.657Z,2.70
2023-11-16T14:48:16.224Z,3.22
2023-11-16T14:50:43.132Z,3.67
2023-11-16T14:53:10.706Z,2.70
2023-11-16T14:55:38.130Z,3.30
2023-11-16T14:58:04.675Z,3.70
2023-11-16T15:00:32.238Z,3.70
2023-11-16T15:03:00.765Z,4.35
2023-11-16T15:05:35.109Z,3.33
2023-11-16T15:08:04.444Z,3.15
2023-11-16T15:10:30.869Z,3.55
2023-11-16T15:12:57.294Z,3.35
2023-11-16T15:15:23.743Z,3.50
2023-11-16T15:17:50.179Z,4.15
2023-11-16T15:20:24.875Z,3.30
2023-11-16T15:22:54.497Z,5.13
2023-11-16T15:25:21.118Z,5.00
2023-11-16T15:27:47.633Z,4.45
2023-11-16T15:30:15.244Z,4.70
2023-11-16T15:32:41.846Z,3.72
2023-11-16T15:35:08.814Z,3.50
2023-11-16T15:37:35.606Z,3.58
2023-11-16T15:40:02.365Z,4.65
2023-11-16T15:42:28.910Z,5.03
2023-11-16T15:44:56.272Z,4.90
2023-11-16T15:47:23.029Z,5.32
2023-11-16T15:49:49.851Z,5.35
2023-11-16T15:52:16.396Z,5.00
2023-11-16T15:54:47.686Z,5.72
2023-11-16T15:57:14.391Z,3.55
2023-11-16T15:59:42.587Z,2.90
2023-11-16T16:02:10.207Z,4.20
2023-11-16T16:04:37.219Z,4.20
2023-11-16T16:07:05.956Z,7.40
2023-11-16T16:09:32.375Z,4.30
2023-11-16T16:11:59.089Z,5.82
2023-11-16T16:14:25.441Z,4.00
2023-11-16T16:16:53.312Z,4.80
2023-11-16T16:19:20.268Z,3.50
2023-11-16T16:21:48.415Z,4.60
2023-11-16T16:24:17.907Z,3.90
2023-11-16T16:26:46.126Z,3.95
2023-11-16T16:29:14.612Z,4.45
2023-11-16T16:31:42.389Z,5.07
2023-11-16T16:34:14.430Z,4.75
2023-11-16T16:36:47.909Z,2.80
2023-11-16T16:39:16.940Z,3.20
2023-11-16T16:41:43.611Z,2.53
2023-11-16T16:44:10.281Z,2.75
2023-11-16T16:46:42.129Z,2.75
2023-11-16T16:49:16.465Z,3.20
2023-11-16T16:51:46.023Z,2.53
2023-11-16T16:54:15.094Z,2.40
2023-11-16T16:56:42.404Z,2.30
2023-11-16T16:59:10.350Z,2.30
2023-11-16T17:01:38.124Z,3.17
2023-11-16T17:04:05.228Z,3.38
2023-11-16T17:06:31.802Z,2.92
2023-11-16T17:08:58.346Z,3.50
2023-11-16T17:11:24.760Z,2.40
2023-11-16T17:13:53.342Z,2.95
2023-11-16T17:16:20.588Z,3.08
2023-11-16T17:18:47.288Z,2.40
2023-11-16T17:21:14.379Z,2.30
2023-11-16T17:23:40.920Z,2.53
2023-11-16T17:26:07.313Z,2.08
2023-11-16T17:28:33.741Z,2.10
2023-11-16T17:31:00.210Z,2.20
2023-11-16T17:33:26.676Z,2.15
2023-11-16T17:35:53.058Z,2.47
2023-11-16T17:38:20.486Z,2.17
2023-11-16T17:40:46.846Z,2.88
2023-11-16T17:43:13.329Z,2.30
2023-11-16T17:45:40.059Z,2.00
2023-11-16T17:48:07.392Z,2.50
2023-11-16T17:50:36.611Z,2.70
2023-11-16T17:53:02.977Z,2.60
2023-11-16T17:55:29.926Z,2.63
2023-11-16T17:57:56.367Z,2.08
2023-11-16T18:00:24.246Z,2.80
2023-11-16T18:02:52.296Z,3.22
2023-11-16T18:05:18.794Z,2.80
2023-11-16T18:07:46.740Z,2.20
2023-11-16T18:10:14.801Z,4.18
2023-11-16T18:12:46.183Z,2.55
2023-11-16T18:15:16.307Z,3.15
2023-11-16T18:17:43.952Z,3.03
2023-11-16T18:20:11.766Z,3.40
2023-11-16T18:22:38.149Z,4.18
2023-11-16T18:25:06.186Z,4.32
2023-11-16T18:27:35.215Z,3.40
2023-11-16T18:30:01.858Z,3.70
2023-11-16T18:32:28.228Z,3.15
2023-11-16T18:34:55.731Z,2.90
2023-11-16T18:37:22.145Z,2.40
2023-11-16T18:39:48.923Z,2.67
2023-11-16T18:42:15.345Z,2.55
2023-11-16T18:44:41.852Z,2.17
2023-11-16T18:47:08.963Z,2.95
2023-11-16T18:49:35.600Z,2.50
2023-11-16T18:52:02.526Z,2.60
2023-11-16T18:54:30.623Z,2.47
2023-11-16T18:56:59.300Z,2.85
2023-11-16T18:59:26.369Z,3.15
2023-11-16T19:01:54.124Z,2.40
2023-11-16T19:04:21.313Z,2.45
2023-11-16T19:06:51.549Z,2.53
2023-11-16T19:09:18.450Z,3.08
2023-11-16T19:11:45.278Z,4.18
2023-11-16T19:14:13.560Z,3.60
2023-11-16T19:16:40.207Z,3.50
2023-11-16T19:19:06.631Z,4.05
2023-11-16T19:21:33.538Z,2.88
2023-11-16T19:23:59.985Z,2.90
2023-11-16T19:26:26.416Z,3.55
2023-11-16T19:28:53.178Z,2.53
2023-11-16T19:31:19.880Z,2.70
2023-11-16T19:33:46.965Z,2.55
2023-11-16T19:36:15.283Z,2.83
2023-11-16T19:38:41.715Z,2.70
2023-11-16T19:41:08.150Z,2.40
2023-11-16T19:43:34.948Z,2.50
2023-11-16T19:46:01.640Z,4.07
2023-11-16T19:48:31.133Z,4.47
2023-11-16T19:50:57.614Z,4.50
2023-11-16T19:53:23.985Z,3.50
2023-11-16T19:55:51.309Z,3.50
2023-11-16T19:58:17.953Z,3.30
2023-11-16T20:00:44.586Z,3.30
2023-11-16T20:03:12.026Z,2.40
2023-11-16T20:05:38.873Z,2.88
2023-11-16T20:08:05.327Z,3.03
2023-11-16T20:10:37.829Z,3.50
2023-11-16T20:13:04.304Z,3.50
2023-11-16T20:15:30.699Z,3.78
2023-11-16T20:17:57.154Z,3.33
2023-11-16T20:20:27.312Z,3.85
2023-11-16T20:22:54.673Z,3.40
2023-11-16T20:25:21.380Z,3.55
2023-11-16T20:27:48.344Z,3.75
2023-11-16T20:30:16.556Z,3.90
2023-11-16T20:32:43.486Z,3.20
2023-11-16T20:35:11.872Z,2.90
2023-11-16T20:37:43.874Z,3.75
2023-11-16T20:40:12.246Z,3.92
2023-11-16T20:42:39.230Z,3.70
2023-11-16T20:45:05.785Z,4.60
2023-11-16T20:47:32.559Z,4.57
2023-11-16T20:50:00.108Z,4.88
2023-11-16T20:52:27.769Z,5.32
2023-11-16T20:54:54.174Z,5.70
2023-11-16T20:57:23.131Z,5.43
2023-11-16T20:59:51.050Z,5.90
2023-11-16T21:02:18.347Z,5.18
2023-11-16T21:04:45.486Z,5.72
2023-11-16T21:07:12.325Z,6.47
2023-11-16T21:09:38.964Z,6.60
2023-11-16T21:12:05.540Z,6.47
2023-11-16T21:14:31.929Z,7.00
2023-11-16T21:16:58.450Z,7.03
2023-11-16T21:19:24.968Z,6.70
2023-11-16T21:21:53.495Z,6.28
2023-11-16T21:24:19.974Z,6.70
2023-11-16T21:26:46.361Z,6.25
2023-11-16T21:29:12.692Z,6.18
2023-11-16T21:31:39.558Z,6.70
2023-11-16T21:34:06.615Z,5.20
2023-11-16T21:36:33.542Z,5.25
2023-11-16T21:39:00.932Z,6.70
2023-11-16T21:41:27.676Z,6.32
2023-11-16T21:43:54.070Z,6.65
2023-11-16T21:46:20.559Z,6.60
2023-11-16T21:48:47.026Z,6.18
2023-11-16T21:51:13.490Z,6.95
2023-11-16T21:53:39.886Z,6.88
2023-11-16T21:56:06.459Z,6.30
2023-11-16T21:58:36.982Z,6.60
2023-11-16T22:01:04.364Z,6.60
2023-11-16T22:03:31.546Z,6.72
2023-11-16T22:05:58.001Z,6.57
2023-11-16T22:08:24.393Z,6.60
2023-11-16T22:10:50.780Z,6.78
2023-11-16T22:13:17.222Z,5.97
2023-11-16T22:15:43.686Z,6.72
2023-11-16T22:18:10.236Z,6.90
2023-11-16T22:20:36.700Z,6.78
2023-11-16T22:23:03.113Z,7.10
2023-11-16T22:25:30.583Z,6.28
2023-11-16T22:27:57.122Z,6.90
2023-11-16T22:30:24.881Z,6.43
2023-11-16T22:32:51.633Z,6.60
2023-11-16T22:35:21.537Z,6.47
2023-11-16T22:37:49.084Z,6.10
2023-11-16T22:40:17.856Z,6.70
2023-11-16T22:42:44.804Z,7.00
2023-11-16T22:45:11.571Z,5.75
2023-11-16T22:47:38.656Z,6.30
2023-11-16T22:50:08.668Z,6.25
2023-11-16T22:52:35.372Z,6.43
2023-11-16T22:55:01.924Z,5.20
2023-11-16T22:57:28.851Z,5.32
2023-11-16T22:59:55.297Z,5.70
2023-11-16T23:02:21.733Z,5.05
2023-11-16T23:04:49.898Z,5.53
2023-11-16T23:07:16.514Z,4.85
2023-11-16T23:09:43.507Z,5.90
2023-11-16T23:12:10.134Z,5.70
2023-11-16T23:14:37.332Z,5.30
2023-11-16T23:17:10.295Z,6.03
2023-11-16T23:19:38.239Z,5.90
2023-11-16T23:22:05.926Z,5.90
2023-11-16T23:24:33.051Z,5.65
2023-11-16T23:27:01.202Z,6.07
2023-11-16T23:29:28.254Z,5.97
2023-11-16T23:31:55.395Z,6.40
2023-11-16T23:34:21.932Z,5.68
2023-11-16T23:36:48.372Z,6.10
2023-11-16T23:39:17.422Z,6.25
2023-11-16T23:41:44.249Z,6.97
2023-11-16T23:44:12.158Z,5.57
2023-11-16T23:46:38.526Z,5.40
2023-11-16T23:49:04.982Z,5.50
2023-11-16T23:51:31.514Z,5.30
2023-11-16T23:53:57.948Z,5.50
2023-11-16T23:56:24.340Z,5.82
2023-11-16T23:58:50.921Z,6.30
